Time;durP1;ratioP1;P1;durP2;ratioP2;P2;SDS_P1;SDS_P2;PMS_P1;PMS_P2;Temp;Humidity;BMP_temperature;BMP_pressure;BME280_temperature;BME280_humidity;BME280_pressure;Samples;Min_cycle;Max_cycle;Signal;HPM_P1;HPM_P2
2022/06/07 00:01:09;;;;;;;1.95;0.90;;;;;;;22.53;39.50;98713.53;4993629;28;20034;-71
2022/06/07 00:03:34;;;;;;;2.75;0.98;;;;;;;22.51;39.25;98715.56;4993529;28;20030;-71
2022/06/07 00:06:00;;;;;;;1.40;0.90;;;;;;;22.52;39.03;98716.41;4994776;28;20493;-71
2022/06/07 00:08:26;;;;;;;1.77;1.00;;;;;;;22.49;39.09;98704.28;4976223;28;20042;-71
2022/06/07 00:10:52;;;;;;;3.42;1.10;;;;;;;22.49;39.25;98706.97;4993475;28;20064;-71
2022/06/07 00:13:17;;;;;;;2.67;0.98;;;;;;;22.48;39.78;98702.66;4976720;28;20078;-71
2022/06/07 00:15:43;;;;;;;3.05;1.02;;;;;;;22.51;38.89;98715.56;4977052;28;20129;-71
2022/06/07 00:18:09;;;;;;;2.03;1.10;;;;;;;22.50;38.96;98703.28;4993070;28;20058;-71
2022/06/07 00:20:35;;;;;;;2.15;0.90;;;;;;;22.49;39.15;98712.28;4993195;28;20082;-70
2022/06/07 00:23:02;;;;;;;2.75;1.00;;;;;;;22.51;38.33;98712.09;4977344;28;20034;-71
2022/06/07 00:25:28;;;;;;;2.83;1.10;;;;;;;22.53;39.09;98723.34;4973628;28;20031;-71
2022/06/07 00:27:53;;;;;;;1.80;0.88;;;;;;;22.51;38.94;98712.09;4989389;28;20378;-70
2022/06/07 00:30:19;;;;;;;1.55;1.10;;;;;;;22.45;39.45;98720.84;4956938;28;20050;-71
2022/06/07 00:32:44;;;;;;;6.85;1.30;;;;;;;22.41;39.75;98715.09;4973574;28;20031;-70
2022/06/07 00:35:10;;;;;;;6.22;1.20;;;;;;;22.37;39.84;98722.63;4975250;28;20043;-70
2022/06/07 00:37:36;;;;;;;2.45;1.25;;;;;;;22.34;39.87;98714.22;4976489;28;20514;-71
2022/06/07 00:40:02;;;;;;;2.45;1.10;;;;;;;22.36;40.03;98713.00;4992950;28;20057;-71
2022/06/07 00:42:28;;;;;;;3.08;1.00;;;;;;;22.37;39.36;98716.47;4992737;28;20125;-71
2022/06/07 00:44:54;;;;;;;3.20;1.20;;;;;;;22.35;39.51;98705.22;4992995;28;20164;-71
2022/06/07 00:47:23;;;;;;;3.17;1.08;;;;;;;22.19;39.50;98701.81;4976482;28;20192;-71
2022/06/07 00:49:51;;;;;;;1.80;1.08;;;;;;;22.25;39.72;98716.19;4993082;28;20038;-71
2022/06/07 00:52:17;;;;;;;;;;;;;;;22.26;39.26;98717.78;4993336;28;20056;-71
2022/06/07 00:54:42;;;;;;;3.65;1.17;;;;;;;22.23;39.23;98719.03;4992945;28;19909;-71
2022/06/07 00:57:07;;;;;;;2.65;1.20;;;;;;;22.23;39.44;98726.16;4993718;28;20026;-71
2022/06/07 00:59:33;;;;;;;2.65;1.30;;;;;;;22.21;39.52;98730.84;4993721;28;20040;-71
2022/06/07 01:01:59;;;;;;;1.98;1.10;;;;;;;22.20;39.73;98732.69;4992096;28;20043;-70
2022/06/07 01:04:27;;;;;;;1.73;1.20;;;;;;;22.21;39.85;98714.91;4992540;28;20034;-71
2022/06/07 01:12:21;;;;;;;2.80;1.08;;;;;;;22.14;40.61;98700.72;4992555;28;20041;-70
2022/06/07 01:14:46;;;;;;;2.85;1.10;;;;;;;22.14;40.23;98706.88;4992357;28;20030;-71
2022/06/07 01:17:12;;;;;;;4.35;1.10;;;;;;;22.15;40.15;98707.69;4992125;28;20461;-71
2022/06/07 01:19:38;;;;;;;1.27;0.93;;;;;;;22.12;39.91;98708.88;4993081;28;20046;-71
2022/06/07 01:22:03;;;;;;;3.53;1.02;;;;;;;22.10;40.17;98718.09;4975297;28;20399;-70
2022/06/07 01:24:29;;;;;;;1.95;1.10;;;;;;;22.11;40.50;98704.59;4975607;28;20042;-71
2022/06/07 01:26:54;;;;;;;2.63;1.10;;;;;;;22.07;40.10;98702.53;4975233;28;20034;-71
2022/06/07 01:29:20;;;;;;;3.60;1.10;;;;;;;22.09;39.83;98705.81;4956563;28;20101;-71
2022/06/07 01:31:47;;;;;;;2.70;1.00;;;;;;;22.07;40.10;98707.84;4956829;28;20461;-71
2022/06/07 01:34:12;;;;;;;2.00;1.20;;;;;;;22.03;39.46;98702.91;4973804;28;20027;-71
2022/06/07 01:36:38;;;;;;;3.17;1.10;;;;;;;22.05;39.75;98708.03;4973795;28;20034;-71
2022/06/07 01:41:56;;;;;;;2.72;1.20;;;;;;;22.09;39.72;98701.34;4972719;28;20150;-70
2022/06/07 01:44:26;;;;;;;4.03;1.10;;;;;;;22.09;39.97;98704.00;4958140;28;20026;-70
2022/06/07 01:46:53;;;;;;;3.00;1.00;;;;;;;22.11;39.99;98695.81;4973605;28;20098;-71
2022/06/07 01:49:18;;;;;;;2.03;1.02;;;;;;;22.11;39.96;98701.94;4956840;28;20030;-71
2022/06/07 01:51:44;;;;;;;3.30;1.10;;;;;;;22.10;40.24;98705.63;4956408;28;20035;-71
2022/06/07 01:54:10;;;;;;;1.42;0.90;;;;;;;22.11;40.17;98701.13;4956550;28;20061;-71
2022/06/07 01:56:36;;;;;;;1.65;1.00;;;;;;;22.10;39.87;98704.81;4956332;28;20035;-71
2022/06/07 01:59:02;;;;;;;1.67;1.02;;;;;;;22.10;39.79;98699.47;4972549;28;20475;-70
2022/06/07 02:01:28;;;;;;;1.67;1.00;;;;;;;22.09;39.74;98695.16;4956490;28;20035;-70
2022/06/07 02:03:54;;;;;;;1.55;0.90;;;;;;;22.06;39.58;98696.41;4956440;28;20078;-70
2022/06/07 02:06:20;;;;;;;1.90;1.30;;;;;;;22.09;39.73;98700.47;4972144;28;20035;-70
2022/06/07 02:08:45;;;;;;;4.50;1.20;;;;;;;22.05;39.40;98695.56;4973610;28;20465;-70
2022/06/07 02:11:19;;;;;;;2.65;1.10;;;;;;;22.07;39.10;98689.22;4972065;28;20019;-70
2022/06/07 02:13:46;;;;;;;4.25;1.23;;;;;;;22.06;39.24;98683.09;4957771;28;20034;-70
2022/06/07 02:16:11;;;;;;;2.20;1.10;;;;;;;22.00;39.35;98684.69;4956246;28;20054;-70
2022/06/07 02:18:38;;;;;;;1.65;1.13;;;;;;;21.96;39.51;98682.59;4956066;28;20503;-70
2022/06/07 02:21:04;;;;;;;2.35;0.90;;;;;;;21.94;39.77;98690.75;4956099;28;20033;-70
2022/06/07 02:23:30;;;;;;;6.03;1.17;;;;;;;21.92;40.01;98694.63;4972158;28;20031;-70
2022/06/07 02:25:58;;;;;;;2.40;0.95;;;;;;;21.90;40.26;98686.88;4972001;28;20093;-71
2022/06/07 02:28:25;;;;;;;1.75;1.20;;;;;;;21.91;39.84;98687.69;4968030;28;20071;-70
2022/06/07 02:30:52;;;;;;;2.72;1.38;;;;;;;21.95;40.08;98691.56;4991452;28;20189;-70
2022/06/07 02:33:17;;;;;;;4.07;1.20;;;;;;;21.99;39.68;98698.16;4995206;28;20036;-70
2022/06/07 02:35:43;;;;;;;3.47;1.10;;;;;;;21.98;39.79;98702.66;4979292;28;20034;-70
2022/06/07 02:38:08;;;;;;;1.42;1.10;;;;;;;21.95;39.95;98694.22;4995157;28;20049;-70
2022/06/07 02:40:34;;;;;;;2.08;1.05;;;;;;;21.97;40.05;98705.53;4995408;28;20485;-70
2022/06/07 02:43:01;;;;;;;4.13;1.17;;;;;;;22.00;40.44;98702.47;4978781;28;20034;-70
2022/06/07 02:45:26;;;;;;;3.05;1.10;;;;;;;22.01;40.53;98704.09;4995378;28;20026;-70
2022/06/07 02:47:52;;;;;;;3.20;1.20;;;;;;;22.03;40.70;98707.41;4996028;28;20042;-70
2022/06/07 02:50:17;;;;;;;2.42;1.23;;;;;;;22.06;40.61;98715.00;4994913;28;20046;-71
2022/06/07 02:52:43;;;;;;;2.70;1.20;;;;;;;22.06;40.72;98707.03;4994506;28;20564;-71
2022/06/07 02:55:08;;;;;;;1.98;1.00;;;;;;;22.16;40.64;98710.16;4978360;28;20084;-70
2022/06/07 02:57:34;;;;;;;4.22;1.40;;;;;;;22.17;40.44;98703.84;4995801;28;20045;-70
2022/06/07 02:59:59;;;;;;;3.38;1.00;;;;;;;22.29;40.18;98711.28;4994738;28;20039;-70
2022/06/07 03:02:25;;;;;;;2.63;1.25;;;;;;;22.76;38.91;98713.25;4996011;28;20038;-70
2022/06/07 03:04:50;;;;;;;4.72;1.13;;;;;;;23.22;37.84;98705.72;4995903;28;20139;-70
2022/06/07 03:07:16;;;;;;;4.03;1.40;;;;;;;23.66;36.78;98721.19;4996166;28;20039;-70
2022/06/07 03:09:41;;;;;;;1.52;1.00;;;;;;;24.07;36.00;98714.09;4994614;28;20521;-70
2022/06/07 03:12:07;;;;;;;2.30;1.10;;;;;;;24.52;35.41;98721.44;4994604;28;20066;-70
2022/06/07 03:14:33;;;;;;;2.28;1.00;;;;;;;24.87;34.39;98718.50;4995915;28;20023;-70
2022/06/07 03:16:58;;;;;;;2.55;1.10;;;;;;;24.68;35.08;98725.53;4994408;28;20053;-70
2022/06/07 03:19:23;;;;;;;2.60;1.05;;;;;;;24.35;35.77;98729.03;4994377;28;20089;-70
2022/06/07 03:21:49;;;;;;;1.73;1.00;;;;;;;24.26;36.52;98727.59;4995549;28;20035;-70
2022/06/07 03:24:15;;;;;;;2.55;1.23;;;;;;;24.18;36.48;98731.34;4994381;28;20085;-70
2022/06/07 03:26:40;;;;;;;2.42;1.20;;;;;;;24.04;36.94;98719.84;4977916;28;20077;-70
2022/06/07 03:29:06;;;;;;;2.05;1.17;;;;;;;24.05;36.71;98715.31;4994390;28;20081;-70
2022/06/07 03:31:31;;;;;;;2.45;1.08;;;;;;;24.12;36.83;98719.63;4985035;28;20488;-70
2022/06/07 03:33:57;;;;;;;3.35;1.23;;;;;;;24.68;35.72;98730.88;4958643;28;20039;-71
2022/06/07 03:36:25;;;;;;;3.17;1.00;;;;;;;25.71;33.52;98719.34;4958648;28;20047;-70
2022/06/07 03:38:51;;;;;;;1.60;1.10;;;;;;;26.61;31.65;98722.78;4972873;28;20070;-70
2022/06/07 03:41:19;;;;;;;2.20;1.02;;;;;;;27.33;30.96;98728.38;4993857;28;20454;-70
2022/06/07 03:43:45;;;;;;;;;;;;;;;28.00;30.14;98734.69;4976761;28;20042;-70
2022/06/07 03:46:13;;;;;;;1.85;1.10;;;;;;;28.59;29.12;98722.16;4994014;28;19916;-70
2022/06/07 03:48:40;;;;;;;2.75;1.00;;;;;;;29.06;28.30;98726.59;4977605;28;20401;-70
2022/06/07 03:51:06;;;;;;;4.40;1.10;;;;;;;29.56;27.09;98725.16;4993427;28;20050;-70
2022/06/07 03:53:32;;;;;;;4.20;1.00;;;;;;;30.07;26.67;98726.06;4993884;28;20026;-70
2022/06/07 03:55:57;;;;;;;3.80;1.13;;;;;;;30.49;26.58;98728.34;4993945;28;20104;-71
2022/06/07 03:58:23;;;;;;;2.97;1.00;;;;;;;30.85;25.34;98725.31;4993629;28;20470;-71
2022/06/07 04:00:48;;;;;;;2.00;1.08;;;;;;;31.40;24.99;98731.63;4977146;28;20038;-70
2022/06/07 04:03:14;;;;;;;1.73;1.00;;;;;;;31.87;24.88;98739.13;4993170;28;20050;-71
2022/06/07 04:05:44;;;;;;;4.90;0.98;;;;;;;32.23;23.83;98727.81;4993185;28;20081;-71
2022/06/07 04:08:12;;;;;;;1.95;0.95;;;;;;;32.76;23.24;98736.03;4977240;28;20023;-70
2022/06/07 04:10:55;;;;;;;3.95;0.98;;;;;;;33.25;23.05;98730.28;4993553;28;20071;-71
2022/06/07 04:13:22;;;;;;;1.85;0.95;;;;;;;33.68;22.22;98728.22;4993472;28;20101;-71
2022/06/07 04:15:47;;;;;;;2.60;0.90;;;;;;;34.00;22.10;98731.78;4993304;28;20113;-71
2022/06/07 04:18:13;;;;;;;4.85;1.05;;;;;;;34.55;21.37;98723.88;4993333;28;20402;-70
2022/06/07 04:20:38;;;;;;;3.30;1.10;;;;;;;34.96;20.68;98726.47;4993149;28;20069;-70
2022/06/07 04:23:04;;;;;;;2.60;0.90;;;;;;;35.42;20.67;98728.97;4976703;28;20042;-70
2022/06/07 04:25:30;;;;;;;1.52;0.70;;;;;;;35.80;20.46;98726.59;4993113;28;20039;-70
2022/06/07 04:27:56;;;;;;;1.45;0.80;;;;;;;36.18;19.86;98725.97;4992966;28;20058;-70
2022/06/07 04:30:21;;;;;;;2.15;0.90;;;;;;;36.66;19.29;98733.38;4975882;28;20047;-70
2022/06/07 04:32:47;;;;;;;2.90;0.80;;;;;;;36.90;19.19;98728.78;4993352;28;20046;-70
2022/06/07 04:35:18;;;;;;;5.15;0.85;;;;;;;37.25;18.38;98728.63;4993055;28;20085;-71
2022/06/07 04:37:45;;;;;;;2.08;0.80;;;;;;;37.60;18.31;98729.22;4992522;28;20046;-71
2022/06/07 04:40:11;;;;;;;2.63;1.00;;;;;;;38.05;17.78;98735.06;4976209;28;20034;-71
2022/06/07 04:42:37;;;;;;;3.80;0.88;;;;;;;38.33;17.36;98733.22;4976332;28;20049;-71
2022/06/07 04:45:03;;;;;;;2.05;0.80;;;;;;;38.58;17.28;98738.50;4994462;28;20093;-71
2022/06/07 04:47:29;;;;;;;2.35;0.88;;;;;;;38.96;17.01;98736.38;4993015;28;20065;-71
2022/06/07 04:49:54;;;;;;;1.90;0.70;;;;;;;39.22;16.22;98735.84;4992758;28;20057;-70
2022/06/07 04:52:20;;;;;;;3.15;0.90;;;;;;;39.13;16.07;98729.53;4992583;28;20595;-71
2022/06/07 04:54:45;;;;;;;2.78;0.90;;;;;;;39.32;15.91;98732.91;4992060;28;20042;-71
2022/06/07 04:57:11;;;;;;;3.25;0.90;;;;;;;39.45;15.77;98726.59;4992463;28;20038;-71
2022/06/07 04:59:36;;;;;;;1.90;0.73;;;;;;;39.74;16.08;98733.59;4992586;28;20034;-72
2022/06/07 05:02:02;;;;;;;1.25;0.80;;;;;;;40.05;15.46;98738.31;4993902;28;20058;-71
2022/06/07 05:04:27;;;;;;;2.33;0.90;;;;;;;40.20;15.30;98742.59;4976379;28;20029;-71
2022/06/07 05:06:53;;;;;;;1.33;0.80;;;;;;;40.56;15.31;98740.84;4975812;28;20038;-71
2022/06/07 05:09:24;;;;;;;2.30;1.00;;;;;;;40.70;15.11;98742.34;4976319;28;20176;-70
2022/06/07 05:11:50;;;;;;;2.40;0.75;;;;;;;41.14;14.96;98747.94;4992306;28;20438;-71
2022/06/07 05:14:16;;;;;;;4.22;0.80;;;;;;;41.25;14.51;98742.97;4992135;28;20022;-71
2022/06/07 05:16:41;;;;;;;1.77;0.90;;;;;;;41.81;14.08;98747.84;4975668;28;20030;-71
2022/06/07 05:19:07;;;;;;;3.08;0.90;;;;;;;42.23;13.56;98750.84;4992238;28;20033;-70
2022/06/07 05:21:33;;;;;;;2.20;0.77;;;;;;;40.92;14.52;98753.53;4975639;28;20065;-71
2022/06/07 05:23:58;;;;;;;2.55;0.80;;;;;;;39.27;15.87;98741.22;4993648;28;20045;-72
2022/06/07 05:26:26;;;;;;;3.65;0.75;;;;;;;38.16;17.35;98752.88;4992066;28;20478;-71
2022/06/07 05:28:52;;;;;;;3.75;0.90;;;;;;;36.91;18.29;98743.19;4975103;28;20058;-71
2022/06/07 05:31:17;;;;;;;1.70;0.80;;;;;;;37.00;18.55;98755.03;4991845;28;20038;-71
2022/06/07 05:33:43;;;;;;;2.50;0.93;;;;;;;38.52;17.32;98756.88;4992363;28;20042;-71
2022/06/07 05:36:08;;;;;;;7.95;0.90;;;;;;;39.64;15.97;98755.69;4991784;28;20575;-71
2022/06/07 05:38:34;;;;;;;2.35;1.02;;;;;;;40.27;15.52;98753.06;4991682;28;20032;-72
2022/06/07 05:40:59;;;;;;;3.22;0.93;;;;;;;40.74;14.77;98756.22;4993020;28;20062;-71
2022/06/07 05:43:25;;;;;;;2.00;1.05;;;;;;;40.80;14.72;98752.19;4991648;28;20030;-70
2022/06/07 05:45:51;;;;;;;1.17;0.70;;;;;;;39.72;15.55;98754.16;4991745;28;20057;-72
2022/06/07 05:48:17;;;;;;;3.20;0.85;;;;;;;39.24;16.67;98750.03;4975225;28;20105;-73
2022/06/07 05:50:50;;;;;;;3.88;0.70;;;;;;;40.15;15.97;98761.84;4991805;28;20482;-72
2022/06/07 05:53:17;;;;;;;2.03;0.80;;;;;;;41.26;15.37;98757.47;4991967;28;20096;-72
2022/06/07 05:55:42;;;;;;;1.25;0.60;;;;;;;42.32;14.54;98767.28;4975381;28;20034;-72
2022/06/07 05:58:08;;;;;;;1.73;0.68;;;;;;;43.13;13.67;98766.28;4991597;28;20038;-72
2022/06/07 06:00:34;;;;;;;8.70;0.80;;;;;;;43.51;13.29;98761.84;4992837;28;20041;-73
2022/06/07 06:02:59;;;;;;;3.53;0.70;;;;;;;43.73;13.27;98760.69;4990287;28;20038;-74
2022/06/07 06:05:25;;;;;;;5.97;0.70;;;;;;;42.28;14.25;98765.19;4970005;28;20438;-73
2022/06/07 06:10:34;;;;;;;3.67;0.70;;;;;;;41.88;15.04;98767.34;4996507;28;20033;-72
2022/06/07 06:12:59;;;;;;;1.48;0.80;;;;;;;41.84;15.02;98775.41;4995073;28;20031;-72
2022/06/07 06:15:26;;;;;;;1.38;0.60;;;;;;;41.54;15.49;98763.47;4962908;28;20030;-72
2022/06/07 06:17:53;;;;;;;3.30;0.60;;;;;;;41.02;15.78;98759.53;4995578;28;20049;-77
2022/06/07 06:20:19;;;;;;;2.63;0.98;;;;;;;40.46;16.46;98761.88;4964085;28;20138;-73
2022/06/07 06:22:45;;;;;;;2.28;0.77;;;;;;;39.71;17.27;98756.06;4973464;28;20447;-72
2022/06/07 06:25:11;;;;;;;3.05;1.10;;;;;;;40.29;16.82;98759.03;4975889;28;20038;-73
2022/06/07 06:27:37;;;;;;;1.30;0.60;;;;;;;39.86;17.42;98749.41;4995027;28;20062;-72
2022/06/07 06:30:03;;;;;;;1.70;0.70;;;;;;;39.80;17.66;98754.22;4963041;28;20030;-72
2022/06/07 06:32:29;;;;;;;2.50;0.80;;;;;;;39.56;17.71;98749.03;4979111;28;20058;-72
2022/06/07 06:34:54;;;;;;;1.42;0.80;;;;;;;39.23;17.83;98754.66;4979036;28;20535;-72
2022/06/07 06:37:20;;;;;;;5.32;0.70;;;;;;;39.10;18.16;98743.78;4996236;28;20030;-85
2022/06/07 06:39:45;;;;;;;8.80;0.90;;;;;;;39.15;18.32;98751.84;4962754;28;20497;-72
2022/06/07 06:42:11;;;;;;;6.47;0.90;;;;;;;40.46;16.73;98745.47;4996011;28;20038;-72
2022/06/07 06:44:37;;;;;;;6.03;1.10;;;;;;;41.26;16.70;98754.72;4978689;28;20375;-75
2022/06/07 06:47:03;;;;;;;4.15;0.90;;;;;;;41.89;15.92;98755.25;4996195;28;20101;-75
2022/06/07 06:49:28;;;;;;;1.10;0.73;;;;;;;41.72;15.58;98751.41;4978311;28;20077;-75
2022/06/07 06:51:55;;;;;;;3.40;0.95;;;;;;;42.26;15.12;98753.75;4995765;28;20077;-75
2022/06/07 06:54:21;;;;;;;1.77;0.70;;;;;;;41.76;15.34;98754.31;4978961;28;20109;-75
2022/06/07 06:56:47;;;;;;;3.58;0.73;;;;;;;41.12;15.96;98742.00;4994290;28;20046;-75
2022/06/07 06:59:14;;;;;;;7.50;0.85;;;;;;;40.59;16.47;98745.69;4994479;28;20022;-75
2022/06/07 07:01:39;;;;;;;1.60;0.70;;;;;;;39.95;17.04;98747.56;4978727;28;20030;-75
2022/06/07 07:04:16;;;;;;;3.03;0.80;;;;;;;39.37;17.34;98745.63;4995866;28;20034;-74
2022/06/07 07:06:41;;;;;;;4.55;0.77;;;;;;;39.00;17.52;98747.47;4996296;28;20050;-75
2022/06/07 07:09:07;;;;;;;2.92;0.90;;;;;;;38.77;17.84;98747.41;4994507;28;20034;-74
2022/06/07 07:11:35;;;;;;;1.98;0.70;;;;;;;38.24;18.73;98743.22;4994547;28;20103;-75
2022/06/07 07:14:01;;;;;;;6.22;0.80;;;;;;;37.76;19.01;98733.34;4993445;28;20149;-75
2022/06/07 07:16:30;;;;;;;4.72;1.00;;;;;;;37.27;19.47;98734.59;4993406;28;20109;-76
2022/06/07 07:18:55;;;;;;;2.72;0.82;;;;;;;36.93;19.74;98736.34;4961082;28;20121;-75
2022/06/07 07:21:23;;;;;;;1.60;0.70;;;;;;;36.55;20.28;98732.72;4995140;28;20520;-75
2022/06/07 07:23:48;;;;;;;3.33;0.70;;;;;;;36.28;20.40;98739.50;4994919;28;20117;-75
2022/06/07 07:26:18;;;;;;;5.13;0.70;;;;;;;35.94;20.88;98737.59;4993678;28;20593;-75
2022/06/07 07:28:43;;;;;;;3.42;0.70;;;;;;;35.64;21.46;98735.88;4997171;28;20134;-75
2022/06/07 07:31:17;;;;;;;2.88;0.90;;;;;;;35.37;21.87;98731.72;5027162;28;20070;-78
2022/06/07 07:33:42;;;;;;;3.63;1.08;;;;;;;35.06;22.51;98726.44;5010362;28;20030;-76
2022/06/07 07:36:08;;;;;;;2.00;0.95;;;;;;;34.79;22.48;98724.09;5026857;28;20073;-76
2022/06/07 07:38:34;;;;;;;2.17;0.90;;;;;;;34.58;22.70;98726.84;4993423;28;20046;-74
2022/06/07 07:41:00;;;;;;;1.23;0.80;;;;;;;34.42;22.80;98730.69;4994137;28;20026;-75
2022/06/07 07:43:25;;;;;;;3.70;0.80;;;;;;;34.31;23.47;98726.38;5026677;28;20500;-75
2022/06/07 07:45:52;;;;;;;2.92;0.88;;;;;;;34.21;23.64;98727.16;4995062;28;20026;-74
2022/06/07 07:48:18;;;;;;;3.13;1.05;;;;;;;34.10;23.80;98720.16;4994955;28;20068;-74
2022/06/07 07:50:44;;;;;;;4.75;1.20;;;;;;;34.01;24.52;98715.25;4995339;28;20038;-79
2022/06/07 07:53:09;;;;;;;5.55;1.10;;;;;;;33.86;24.82;98723.41;5010105;28;20508;-73
2022/06/07 07:55:35;;;;;;;13.65;2.45;;;;;;;33.66;25.98;98722.25;4995239;28;20093;-74
2022/06/07 07:58:00;;;;;;;7.40;1.40;;;;;;;33.46;26.32;98717.66;4994682;28;20113;-74
2022/06/07 08:00:26;;;;;;;5.47;1.73;;;;;;;33.34;25.99;98715.19;5026567;28;20037;-74
2022/06/07 08:02:52;;;;;;;6.13;1.45;;;;;;;33.24;26.94;98719.75;4994594;28;20118;-71
2022/06/07 08:05:17;;;;;;;5.30;1.27;;;;;;;32.87;25.65;98710.66;4993397;28;20047;-71
2022/06/07 08:07:43;;;;;;;5.88;1.27;;;;;;;32.58;25.33;98712.94;4993403;28;20068;-71
2022/06/07 08:10:08;;;;;;;13.40;1.70;;;;;;;32.33;25.51;98705.50;4993767;28;20084;-71
2022/06/07 08:12:34;;;;;;;12.50;1.90;;;;;;;32.40;26.93;98693.41;4993472;28;20027;-71
2022/06/07 08:14:59;;;;;;;6.38;1.50;;;;;;;32.09;26.84;98705.88;5009641;28;20030;-71
2022/06/07 08:17:28;;;;;;;4.30;1.23;;;;;;;31.88;26.24;98699.47;4994374;28;20033;-71
2022/06/07 08:19:54;;;;;;;6.05;1.30;;;;;;;32.17;26.93;98708.09;4993237;28;20053;-72
2022/06/07 08:22:22;;;;;;;3.05;1.30;;;;;;;32.37;25.81;98698.50;4994594;28;20034;-72
2022/06/07 08:24:48;;;;;;;5.57;1.10;;;;;;;32.58;25.05;98692.13;4993252;28;20034;-73
2022/06/07 08:27:14;;;;;;;2.92;1.35;;;;;;;33.00;26.00;98683.16;5025721;28;20030;-71
2022/06/07 08:29:40;;;;;;;1.67;0.88;;;;;;;33.16;23.54;98696.69;5007830;28;20037;-73
2022/06/07 08:32:06;;;;;;;2.03;0.90;;;;;;;33.09;23.03;98698.84;4975606;28;20073;-72
2022/06/07 08:37:33;;;;;;;8.98;1.48;;;;;;;33.53;23.19;98682.22;4991418;28;20095;-75
2022/06/07 08:40:03;;;;;;;4.07;1.00;;;;;;;33.62;22.03;98690.59;4964389;28;20478;-73
2022/06/07 08:42:31;;;;;;;3.30;1.05;;;;;;;33.75;21.94;98684.69;4959364;28;20124;-71
2022/06/07 08:45:00;;;;;;;;;;;;;;;33.81;22.03;98680.06;4976949;28;20374;-71
2022/06/07 08:47:41;;;;;;;1.65;0.90;;;;;;;33.95;22.47;98683.84;4991116;28;20373;-72
2022/06/07 08:50:16;;;;;;;3.08;1.10;;;;;;;34.36;22.43;98670.25;4966720;28;20517;-78
2022/06/07 08:52:41;;;;;;;4.80;1.00;;;;;;;34.77;22.34;98667.44;4993735;28;20041;-75
2022/06/07 08:55:39;;;;;;;2.10;0.90;;;;;;;35.17;22.22;98661.28;4993358;28;20038;-77
2022/06/07 08:58:21;;;;;;;4.93;1.40;;;;;;;35.31;21.82;98651.44;4991665;28;20398;-75
2022/06/07 09:00:49;;;;;;;3.17;1.38;;;;;;;35.47;21.51;98650.25;4992718;28;20082;-73
2022/06/07 09:03:34;;;;;;;2.85;1.02;;;;;;;35.91;21.15;98647.72;4959748;28;20038;-74
2022/06/07 09:06:00;;;;;;;1.77;1.10;;;;;;;36.20;21.10;98645.81;4992231;28;20470;-74
2022/06/07 09:08:39;;;;;;;1.80;1.10;;;;;;;36.38;20.45;98636.09;4975532;28;20564;-75
2022/06/07 09:13:51;;;;;;;1.45;1.00;;;;;;;36.58;20.09;98637.78;4993477;28;20097;-75
2022/06/07 09:16:16;;;;;;;2.50;0.88;;;;;;;36.66;20.10;98639.03;4992544;28;20544;-76
2022/06/07 09:18:42;;;;;;;3.20;1.00;;;;;;;36.80;19.70;98633.75;4959990;28;20155;-75
2022/06/07 09:21:09;;;;;;;1.77;0.95;;;;;;;36.96;19.33;98631.63;4993395;28;20411;-77
2022/06/07 09:23:37;;;;;;;;;;;;;;;37.02;19.15;98633.16;4992545;28;20110;-76
2022/06/07 09:26:12;;;;;;;1.17;0.80;;;;;;;36.47;19.74;98628.13;4992161;28;20373;-75
2022/06/07 09:28:37;;;;;;;1.30;0.88;;;;;;;36.59;19.66;98630.44;4991657;28;20081;-75
2022/06/07 09:31:11;;;;;;;1.75;0.93;;;;;;;36.60;19.66;98614.94;4993091;28;20066;-76
2022/06/07 09:33:49;;;;;;;1.90;1.20;;;;;;;36.58;19.63;98615.22;4991961;28;20030;-75
2022/06/07 09:36:25;;;;;;;4.90;1.13;;;;;;;36.64;19.30;98616.78;4991899;28;20024;-76
2022/06/07 09:38:55;;;;;;;4.28;1.40;;;;;;;36.69;19.46;98626.75;4992335;28;20037;-75
2022/06/07 09:41:36;;;;;;;4.55;1.40;;;;;;;36.40;19.53;98617.63;4991033;28;20040;-76
2022/06/07 09:44:29;;;;;;;2.45;1.40;;;;;;;36.00;19.65;98635.94;4977056;28;20027;-77
2022/06/07 09:47:01;;;;;;;3.25;1.35;;;;;;;35.79;19.87;98629.91;4993176;28;20026;-76
2022/06/07 09:49:47;;;;;;;4.47;1.50;;;;;;;35.94;19.75;98617.28;4975953;28;20034;-76
2022/06/07 09:52:20;;;;;;;5.45;1.50;;;;;;;36.01;19.70;98609.63;4975654;28;20034;-76
2022/06/07 09:54:48;;;;;;;2.63;1.45;;;;;;;36.05;20.00;98607.94;4992020;28;20034;-75
2022/06/07 09:57:32;;;;;;;3.25;1.50;;;;;;;36.26;19.89;98616.69;4991696;28;20471;-75
2022/06/07 10:00:07;;;;;;;2.60;1.45;;;;;;;36.28;19.87;98610.97;4975961;28;20035;-76
2022/06/07 10:02:38;;;;;;;3.15;1.70;;;;;;;36.33;20.08;98625.31;4992854;28;20030;-77
2022/06/07 10:05:08;;;;;;;3.55;1.85;;;;;;;36.40;19.88;98616.78;4993071;28;20096;-75
2022/06/07 10:08:04;;;;;;;2.20;1.98;;;;;;;36.34;20.04;98617.97;4991806;28;20454;-76
2022/06/07 10:10:50;;;;;;;3.53;2.30;;;;;;;36.42;20.10;98595.59;4975664;28;20483;-74
2022/06/07 10:13:43;;;;;;;4.10;2.40;;;;;;;36.41;19.96;98599.41;4991691;28;20022;-76
2022/06/07 10:16:20;;;;;;;4.10;2.80;;;;;;;36.45;19.87;98608.56;4991927;28;20133;-76
2022/06/07 10:18:51;;;;;;;5.53;2.47;;;;;;;36.33;20.33;98600.84;4991321;28;20497;-75
2022/06/07 10:21:29;;;;;;;2.88;2.25;;;;;;;36.38;20.22;98592.63;4991655;28;20034;-75
2022/06/07 10:24:15;;;;;;;3.30;2.28;;;;;;;36.32;19.99;98591.06;4991920;28;20046;-76
2022/06/07 10:26:50;;;;;;;5.35;2.40;;;;;;;36.03;20.52;98591.13;4992058;28;20062;-76
2022/06/07 10:29:45;;;;;;;3.28;2.30;;;;;;;35.84;20.25;98591.84;4992222;28;20109;-76
2022/06/07 10:32:41;;;;;;;4.28;2.60;;;;;;;35.73;20.64;98593.00;4974934;28;20027;-76
2022/06/07 10:35:15;;;;;;;3.73;2.80;;;;;;;35.57;20.71;98591.56;4976473;28;20106;-76
2022/06/07 10:37:52;;;;;;;4.30;3.22;;;;;;;35.46;20.82;98588.13;4991528;28;20041;-75
2022/06/07 10:40:54;;;;;;;4.88;3.28;;;;;;;35.50;21.03;98583.72;4992706;28;20122;-75
2022/06/07 10:43:22;;;;;;;5.40;3.63;;;;;;;35.57;21.06;98583.41;4991205;28;20018;-75
2022/06/07 10:45:47;;;;;;;5.32;3.47;;;;;;;35.58;21.06;98574.97;4975651;28;20036;-75
2022/06/07 10:48:34;;;;;;;5.40;3.00;;;;;;;35.56;20.80;98568.22;4974382;28;20042;-76
2022/06/07 10:54:05;;;;;;;4.50;3.40;;;;;;;35.02;21.46;98564.56;4994973;28;20042;-75
2022/06/07 10:56:38;;;;;;;5.40;4.20;;;;;;;34.75;21.83;98561.19;4994827;28;20066;-75
2022/06/07 10:59:10;;;;;;;5.97;3.85;;;;;;;34.60;21.70;98556.66;4995089;28;20057;-75
2022/06/07 11:01:44;;;;;;;6.60;3.60;;;;;;;34.40;21.83;98554.03;4994760;28;20526;-77
2022/06/07 11:09:19;;;;;;;8.77;3.25;;;;;;;34.34;21.57;98552.44;4962792;28;20088;-75
2022/06/07 11:09:43;;;;;;;6.82;2.40;;;;;;;34.17;21.54;98550.03;4981076;28;20045;-75
2022/06/07 11:12:17;;;;;;;3.20;2.40;;;;;;;34.12;21.51;98536.50;4978237;28;20557;-76
2022/06/07 11:15:15;;;;;;;5.32;2.03;;;;;;;34.01;21.95;98528.41;4994597;28;20038;-76
2022/06/07 11:17:49;;;;;;;4.50;1.92;;;;;;;33.89;22.07;98530.66;4975536;28;20038;-75
2022/06/07 11:20:28;;;;;;;3.28;1.80;;;;;;;33.94;22.49;98519.78;4942286;28;20034;-76
2022/06/07 11:23:02;;;;;;;4.50;1.77;;;;;;;33.83;22.33;98531.75;4942459;28;20522;-76
2022/06/07 11:25:35;;;;;;;3.35;1.60;;;;;;;33.79;22.45;98536.06;4975391;28;20043;-75
2022/06/07 11:28:15;;;;;;;2.65;1.48;;;;;;;33.83;22.35;98523.63;4941692;28;20043;-76
2022/06/07 11:30:42;;;;;;;3.65;1.77;;;;;;;33.83;22.64;98519.00;4943018;28;20027;-76
2022/06/07 11:33:26;;;;;;;;;;;;;;;33.80;23.00;98524.97;4942690;28;20118;-76
2022/06/07 11:36:04;;;;;;;2.45;1.65;;;;;;;33.78;22.99;98518.19;4973879;28;19914;-77
2022/06/07 11:38:31;;;;;;;2.05;1.40;;;;;;;33.74;22.94;98511.72;4959245;28;20073;-76
2022/06/07 11:41:37;;;;;;;3.30;1.30;;;;;;;33.65;22.69;98516.84;4925832;28;20043;-76
2022/06/07 11:44:12;;;;;;;2.65;1.10;;;;;;;33.59;22.86;98520.66;4973785;28;20042;-75
2022/06/07 11:46:40;;;;;;;2.70;1.45;;;;;;;33.51;22.89;98520.13;4958959;28;20030;-76
2022/06/07 11:49:24;;;;;;;2.60;1.30;;;;;;;33.45;22.89;98509.59;4957209;28;20116;-75
2022/06/07 11:52:11;;;;;;;3.42;1.35;;;;;;;33.41;23.43;98506.59;4973720;28;20081;-75
2022/06/07 11:54:46;;;;;;;;;;;;;;;33.46;23.42;98505.78;4978420;28;20405;-75
2022/06/07 11:57:33;;;;;;;2.28;1.30;;;;;;;33.54;23.42;98497.09;4994962;28;20049;-76
2022/06/07 12:00:16;;;;;;;3.95;1.20;;;;;;;33.54;23.41;98494.41;4995089;28;20038;-74
2022/06/07 12:02:42;;;;;;;4.13;1.45;;;;;;;33.55;23.50;98493.34;4993875;28;20410;-75
2022/06/07 12:05:17;;;;;;;2.55;1.20;;;;;;;33.60;23.08;98496.00;4993051;28;20521;-75